Pagina principală
METAR-TAF:

METAR-TAF

Aeroporturi :

Terrell Municipal Airport

Terrell, Texas, Statele Unite ale Americii

Latitudine: 32-42-49N, longitudine: 096-16-06W, elevație: 144 m

Observații meteo curente

Raportul a fost făcut în urmă cu 34 de minute, la 21:53 UTC
Vânt 8 kt de la Sud/Sud-est
Temperatură 33°C
Umiditate 46%
Presiune 1015 hPa
Vizibilitate: 16.1 km
Nori puțini la o înălțime de 5500 picior

METAR: KTRL 222153Z AUTO 16008KT 10SM FEW055 33/20 A2998 RMK AO2 SLP145 T03330200

Ora: 17:27 (22:27 UTC)


TAF: lipsă

Observații și prognoze meteo pentru peste 4.000 de aeroporturi (rapoarte METAR și TAF).

Stațiile disponibile sunt reprezentate pe hartă prin puncte galbene și roșii.

Țineți indicatorul mouse-ului pe punctul dorit pentru a vedea denumirea stației.

Apoi, faceți clic pentru a vedea observațiile și prognozele meteorologice.

Pentru a schimba harta: Pentru mărire, faceți clic pe butoanele verzi cu cruce neagră; pentru micșorare, pe butonul verde cu o liniuță; pentru hărți învecinate, pe săgețile verzi.


METAR-TAF: